Time;durP1;ratioP1;P1;durP2;ratioP2;P2;SDS_P1;SDS_P2;PMS_P1;PMS_P2;Temp;Humidity;BMP_temperature;BMP_pressure;BME280_temperature;BME280_humidity;BME280_pressure;Samples;Min_cycle;Max_cycle;Signal;HPM_P1;HPM_P2
2022/07/22 00:01:01;;;;;;;7.30;2.00;;;;;;;14.76;96.32;102356.25;5096307;28;20101;-78
2022/07/22 00:03:26;;;;;;;10.63;2.20;;;;;;;14.76;96.54;102358.94;5096062;28;20167;-77
2022/07/22 00:05:52;;;;;;;10.57;2.13;;;;;;;14.76;96.46;102358.94;5097009;28;20032;-77
2022/07/22 00:08:17;;;;;;;8.25;1.83;;;;;;;14.76;95.84;102355.38;5095029;28;20077;-79
2022/07/22 00:10:43;;;;;;;7.95;1.65;;;;;;;14.77;95.20;102349.06;5095987;28;20052;-78
2022/07/22 00:13:09;;;;;;;9.93;1.70;;;;;;;14.79;95.16;102349.75;5094026;28;20093;-78
2022/07/22 00:15:34;;;;;;;9.40;1.70;;;;;;;14.78;95.22;102356.13;5093278;28;20103;-78
2022/07/22 00:18:00;;;;;;;7.50;1.95;;;;;;;14.77;95.63;102357.09;5092511;28;20119;-77
2022/07/22 00:20:25;;;;;;;5.00;2.05;;;;;;;14.73;94.98;102342.25;5092534;28;20040;-78
2022/07/22 00:22:50;;;;;;;7.68;1.90;;;;;;;14.69;94.50;102352.38;5091058;28;20085;-78
2022/07/22 00:25:16;;;;;;;11.07;2.00;;;;;;;14.65;93.60;102350.94;5092460;28;20051;-80
2022/07/22 00:27:42;;;;;;;12.82;1.80;;;;;;;14.65;93.71;102352.78;5092606;28;20083;-78
2022/07/22 00:30:08;;;;;;;7.32;1.70;;;;;;;14.63;93.86;102348.38;5092398;28;20067;-78
2022/07/22 00:32:33;;;;;;;5.80;1.75;;;;;;;14.62;94.22;102348.50;5092363;28;20028;-79
2022/07/22 00:34:58;;;;;;;8.05;1.70;;;;;;;14.60;93.97;102345.94;5092326;28;20028;-77
2022/07/22 00:37:24;;;;;;;7.50;1.98;;;;;;;14.59;94.09;102333.50;5092390;28;20174;-78
2022/07/22 00:39:49;;;;;;;9.25;2.20;;;;;;;14.60;94.76;102331.66;5092640;28;20414;-78
2022/07/22 00:42:14;;;;;;;8.20;2.13;;;;;;;14.59;94.56;102338.03;5092354;28;20038;-77
2022/07/22 00:44:40;;;;;;;11.02;1.92;;;;;;;14.58;94.58;102342.50;5092453;28;20385;-77
2022/07/22 00:47:06;;;;;;;22.27;1.95;;;;;;;14.57;93.88;102334.59;5092149;28;20402;-78
2022/07/22 00:49:34;;;;;;;6.05;1.67;;;;;;;14.60;94.11;102331.66;5092607;28;20075;-78
2022/07/22 00:52:00;;;;;;;7.45;1.63;;;;;;;14.59;94.12;102327.31;5090255;28;20320;-77
2022/07/22 00:54:25;;;;;;;5.75;1.70;;;;;;;14.58;93.16;102326.44;5092469;28;20137;-77
2022/07/22 00:56:51;;;;;;;5.28;1.50;;;;;;;14.59;93.00;102317.44;5091606;28;20119;-79
2022/07/22 00:59:17;;;;;;;7.35;1.98;;;;;;;14.60;92.84;102318.28;5090781;28;20059;-77
2022/07/22 01:01:42;;;;;;;4.63;1.88;;;;;;;14.59;92.24;102317.44;5092029;28;20032;-77
2022/07/22 01:04:08;;;;;;;10.20;1.58;;;;;;;14.59;92.17;102317.44;5091794;28;20028;-77
2022/07/22 01:06:33;;;;;;;10.95;2.17;;;;;;;14.60;92.46;102321.81;5090680;28;20303;-77
2022/07/22 01:08:59;;;;;;;12.07;1.85;;;;;;;14.62;91.22;102316.38;5091823;28;20104;-78
2022/07/22 01:11:25;;;;;;;4.05;1.50;;;;;;;14.63;91.24;102321.59;5091947;28;20334;-77
2022/07/22 01:13:51;;;;;;;6.32;1.67;;;;;;;14.66;90.88;102314.28;5091773;28;20036;-77
2022/07/22 01:16:17;;;;;;;6.57;1.85;;;;;;;14.66;90.31;102316.94;5091732;28;20535;-77
2022/07/22 01:18:43;;;;;;;5.15;1.88;;;;;;;14.67;90.54;102313.31;5091900;28;20039;-78
2022/07/22 01:21:09;;;;;;;5.80;1.70;;;;;;;14.66;90.68;102311.59;5091451;28;20028;-78
2022/07/22 01:23:36;;;;;;;5.38;1.60;;;;;;;14.65;89.79;102313.44;5091768;28;20068;-78
2022/07/22 01:26:03;;;;;;;6.70;1.40;;;;;;;14.67;89.39;102315.97;5091235;28;20376;-77
2022/07/22 01:28:28;;;;;;;5.03;1.60;;;;;;;14.66;89.37;102309.78;5089822;28;20028;-77
2022/07/22 01:30:54;;;;;;;4.68;1.35;;;;;;;14.66;89.46;102315.13;5091632;28;20436;-79
2022/07/22 01:33:21;;;;;;;10.57;1.70;;;;;;;14.67;89.23;102314.13;5091320;28;20165;-78
2022/07/22 01:35:46;;;;;;;7.47;1.98;;;;;;;14.67;89.23;102316.81;5091083;28;20080;-78
2022/07/22 01:38:12;;;;;;;5.07;1.50;;;;;;;14.68;89.51;102313.16;5090975;28;20118;-78
2022/07/22 01:40:38;;;;;;;8.02;1.50;;;;;;;14.68;90.71;102306.97;5091260;28;20082;-78
2022/07/22 01:43:03;;;;;;;8.75;1.90;;;;;;;14.66;90.57;102309.78;5091157;28;20142;-78
2022/07/22 01:45:29;;;;;;;5.90;1.65;;;;;;;14.65;89.91;102310.75;5091396;28;20127;-78
2022/07/22 01:47:54;;;;;;;7.43;1.35;;;;;;;14.64;90.38;102314.41;5089046;28;20493;-78
2022/07/22 01:50:20;;;;;;;7.32;1.70;;;;;;;14.63;91.36;102316.25;5091281;28;20072;-78
2022/07/22 01:52:45;;;;;;;7.22;1.60;;;;;;;14.61;91.57;102304.81;5091094;28;20059;-80
2022/07/22 01:55:12;;;;;;;6.68;1.30;;;;;;;14.61;91.97;102309.31;5090480;28;20124;-79
2022/07/22 01:57:38;;;;;;;7.40;1.70;;;;;;;14.60;92.37;102313.78;5091088;28;20032;-79
2022/07/22 02:00:07;;;;;;;4.75;1.60;;;;;;;14.62;92.25;102305.66;5090742;28;20055;-79
2022/07/22 02:02:32;;;;;;;4.97;1.77;;;;;;;14.62;92.99;102303.81;5089417;28;20059;-79
2022/07/22 02:04:58;;;;;;;7.90;1.52;;;;;;;14.64;92.78;102306.38;5090743;28;20024;-79
2022/07/22 02:07:24;;;;;;;4.68;1.70;;;;;;;14.62;93.53;102298.47;5091821;28;20416;-79
2022/07/22 02:09:50;;;;;;;7.32;1.67;;;;;;;14.65;92.71;102307.22;5090857;28;20106;-79
2022/07/22 02:12:15;;;;;;;2.63;1.23;;;;;;;14.65;93.07;102297.34;5088871;28;20142;-79
2022/07/22 02:14:40;;;;;;;6.90;1.60;;;;;;;14.64;93.37;102301.00;5090561;28;20044;-79
2022/07/22 02:17:06;;;;;;;6.88;1.67;;;;;;;14.64;93.71;102301.00;5090614;28;20418;-79
2022/07/22 02:19:31;;;;;;;7.60;1.67;;;;;;;14.62;92.55;102298.47;5090098;28;20092;-79
2022/07/22 02:21:56;;;;;;;7.53;1.50;;;;;;;14.65;93.17;102301.88;5090415;28;20385;-78
2022/07/22 02:24:22;;;;;;;10.45;1.80;;;;;;;14.66;94.64;102300.88;5090475;28;20032;-78
2022/07/22 02:26:47;;;;;;;6.10;1.30;;;;;;;14.66;93.91;102299.06;5090302;28;20040;-79
2022/07/22 02:29:12;;;;;;;6.10;1.55;;;;;;;14.68;93.48;102301.63;5090518;28;20032;-77
2022/07/22 02:31:38;;;;;;;4.13;1.23;;;;;;;14.68;94.27;102297.09;5090106;28;20035;-78
2022/07/22 02:34:03;;;;;;;5.68;1.40;;;;;;;14.69;94.66;102297.94;5088468;28;20173;-78
2022/07/22 02:36:29;;;;;;;4.30;1.30;;;;;;;14.68;94.39;102294.41;5089799;28;20032;-78
2022/07/22 02:38:54;;;;;;;8.48;1.73;;;;;;;14.69;94.86;102298.81;5088834;28;20062;-79
2022/07/22 02:41:19;;;;;;;7.13;1.50;;;;;;;14.67;95.22;102286.50;5090303;28;20323;-78
2022/07/22 02:43:45;;;;;;;7.28;1.67;;;;;;;14.65;96.26;102285.81;5090435;28;20070;-78
2022/07/22 02:46:10;;;;;;;7.05;1.85;;;;;;;14.60;95.28;102284.31;5090363;28;20035;-78
2022/07/22 02:48:36;;;;;;;5.63;1.75;;;;;;;14.58;95.91;102283.59;5090284;28;20028;-78
2022/07/22 02:51:01;;;;;;;9.48;1.77;;;;;;;14.54;96.39;102279.50;5090201;28;20031;-78
2022/07/22 02:53:27;;;;;;;6.65;1.52;;;;;;;14.51;97.44;102282.44;5089812;28;20028;-78
2022/07/22 02:55:52;;;;;;;6.97;1.70;;;;;;;14.46;97.87;102273.94;5088905;28;20035;-77
2022/07/22 02:58:18;;;;;;;5.38;1.90;;;;;;;14.45;99.24;102286.47;5089692;28;20046;-78
2022/07/22 03:00:43;;;;;;;7.40;1.67;;;;;;;14.39;99.36;102278.97;5089656;28;20032;-78
2022/07/22 03:03:08;;;;;;;7.97;1.60;;;;;;;14.37;99.54;102274.72;5089827;28;20446;-78
2022/07/22 03:05:34;;;;;;;4.90;1.55;;;;;;;14.32;100.00;102280.44;5089961;28;20036;-77
2022/07/22 03:07:59;;;;;;;5.47;1.80;;;;;;;14.32;100.00;102279.63;5089855;28;20087;-78
2022/07/22 03:10:25;;;;;;;5.85;1.70;;;;;;;14.27;100.00;102279.97;5089353;28;20120;-77
2022/07/22 03:12:50;;;;;;;7.40;1.70;;;;;;;14.24;100.00;102282.91;5089313;28;20070;-77
2022/07/22 03:15:16;;;;;;;7.05;2.03;;;;;;;14.16;100.00;102275.53;5089501;28;20116;-78
2022/07/22 03:17:41;;;;;;;6.20;1.40;;;;;;;14.11;100.00;102283.09;5089582;28;20036;-78
2022/07/22 03:20:09;;;;;;;4.90;1.50;;;;;;;14.01;100.00;102284.81;5089600;28;20058;-78
2022/07/22 03:22:35;;;;;;;4.43;1.50;;;;;;;13.91;100.00;102284.72;5087714;28;20025;-77
2022/07/22 03:25:01;;;;;;;5.93;1.55;;;;;;;13.82;100.00;102282.81;5089313;28;20068;-78
2022/07/22 03:27:26;;;;;;;4.18;1.65;;;;;;;13.77;100.00;102285.03;5089420;28;20354;-77
2022/07/22 03:29:52;;;;;;;6.70;1.48;;;;;;;13.72;100.00;102285.41;5089732;28;20386;-77
2022/07/22 03:32:18;;;;;;;8.70;1.98;;;;;;;13.72;100.00;102283.56;5089518;28;20054;-77
2022/07/22 03:34:44;;;;;;;8.85;1.63;;;;;;;13.72;100.00;102288.91;5089280;28;20103;-78
2022/07/22 03:37:09;;;;;;;4.28;1.35;;;;;;;13.74;100.00;102292.28;5089771;28;20040;-77
2022/07/22 03:39:34;;;;;;;4.43;1.40;;;;;;;13.76;100.00;102284.16;5089287;28;20035;-77
2022/07/22 03:42:00;;;;;;;5.78;1.40;;;;;;;13.77;100.00;102283.19;5089440;28;20141;-77
2022/07/22 03:44:25;;;;;;;4.68;1.63;;;;;;;13.79;100.00;102273.19;5089173;28;20024;-78
2022/07/22 03:46:51;;;;;;;6.15;1.90;;;;;;;13.83;100.00;102285.34;5089222;28;20442;-78
2022/07/22 03:49:16;;;;;;;9.75;2.30;;;;;;;13.86;100.00;102282.44;5089469;28;20040;-78
2022/07/22 03:51:42;;;;;;;6.22;2.25;;;;;;;13.90;100.00;102280.38;5091755;28;20051;-78
2022/07/22 03:54:07;;;;;;;5.05;1.98;;;;;;;13.93;100.00;102286.31;5093067;28;20032;-79
2022/07/22 03:56:33;;;;;;;5.22;2.05;;;;;;;13.96;100.00;102279.84;5093224;28;20532;-78
2022/07/22 03:58:58;;;;;;;5.15;1.67;;;;;;;13.98;100.00;102280.56;5093477;28;20453;-78
2022/07/22 04:01:24;;;;;;;5.38;1.75;;;;;;;14.00;100.00;102286.66;5092686;28;20123;-78
2022/07/22 04:03:49;;;;;;;6.93;1.60;;;;;;;14.04;100.00;102292.59;5093056;28;20434;-79
2022/07/22 04:06:15;;;;;;;5.40;1.70;;;;;;;14.05;100.00;102292.47;5091519;28;20399;-80
2022/07/22 04:08:41;;;;;;;6.25;1.60;;;;;;;14.10;100.00;102298.28;5092885;28;20032;-79
2022/07/22 04:11:06;;;;;;;5.72;1.70;;;;;;;14.13;100.00;102289.16;5092346;28;20063;-79
2022/07/22 04:13:32;;;;;;;8.20;1.70;;;;;;;14.15;100.00;102289.03;5092916;28;20040;-79
2022/07/22 04:15:57;;;;;;;7.13;1.55;;;;;;;14.18;100.00;102296.81;5092681;28;20268;-80
2022/07/22 04:18:22;;;;;;;4.85;1.38;;;;;;;14.22;100.00;102295.59;5092808;28;20102;-79
2022/07/22 04:20:48;;;;;;;4.22;1.40;;;;;;;14.24;100.00;102289.13;5092525;28;20044;-79
2022/07/22 04:23:13;;;;;;;5.07;1.70;;;;;;;14.28;100.00;102300.41;5092674;28;20453;-79
2022/07/22 04:25:39;;;;;;;7.75;1.90;;;;;;;14.30;100.00;102282.38;5092631;28;20088;-80
2022/07/22 04:28:04;;;;;;;6.80;1.60;;;;;;;14.33;100.00;102292.00;5092572;28;20047;-80
2022/07/22 04:30:30;;;;;;;6.97;2.20;;;;;;;14.37;100.00;102288.09;5092387;28;20032;-79
2022/07/22 04:32:55;;;;;;;6.30;1.50;;;;;;;14.40;100.00;102283.31;5092567;28;20035;-79
2022/07/22 04:35:20;;;;;;;4.75;1.60;;;;;;;14.44;100.00;102282.09;5092492;28;20367;-79
2022/07/22 04:37:46;;;;;;;6.10;1.73;;;;;;;14.48;100.00;102281.81;5091913;28;20035;-79
2022/07/22 04:40:12;;;;;;;3.42;1.27;;;;;;;14.51;100.00;102278.88;5090959;28;20230;-79
2022/07/22 04:42:37;;;;;;;4.95;1.52;;;;;;;14.53;100.00;102285.81;5092181;28;20384;-79
2022/07/22 04:45:03;;;;;;;3.13;1.35;;;;;;;14.55;100.00;102269.63;5092219;28;20034;-79
2022/07/22 04:47:29;;;;;;;5.25;1.45;;;;;;;14.59;100.00;102276.41;5092078;28;20109;-79
2022/07/22 04:49:55;;;;;;;8.68;1.98;;;;;;;14.61;100.00;102279.84;5091596;28;20044;-79
2022/07/22 04:52:20;;;;;;;4.97;1.40;;;;;;;14.63;100.00;102275.22;5090169;28;20112;-79
2022/07/22 04:54:45;;;;;;;7.90;1.50;;;;;;;14.68;100.00;102283.69;5091665;28;20147;-78
2022/07/22 04:57:11;;;;;;;5.63;1.50;;;;;;;14.76;100.00;102289.28;5092393;28;20079;-79
2022/07/22 04:59:36;;;;;;;6.50;1.27;;;;;;;14.80;100.00;102288.00;5091973;28;20118;-78
2022/07/22 05:02:02;;;;;;;4.30;1.42;;;;;;;14.89;100.00;102285.53;5091547;28;20071;-79
2022/07/22 05:04:28;;;;;;;8.32;1.70;;;;;;;14.99;100.00;102289.13;5091770;28;20152;-79
2022/07/22 05:06:53;;;;;;;5.13;1.30;;;;;;;15.04;100.00;102294.06;5091592;28;20430;-79
2022/07/22 05:09:19;;;;;;;5.90;1.20;;;;;;;15.09;99.04;102281.09;5091760;28;20118;-79
2022/07/22 05:11:44;;;;;;;5.45;1.10;;;;;;;15.15;98.66;102284.13;5091682;28;20196;-79
2022/07/22 05:14:09;;;;;;;9.40;1.70;;;;;;;15.19;96.77;102278.47;5090254;28;20481;-78
2022/07/22 05:16:37;;;;;;;4.03;1.17;;;;;;;15.24;94.45;102282.47;5091289;28;20035;-78
2022/07/22 05:19:03;;;;;;;7.07;1.20;;;;;;;15.29;92.98;102277.53;5091586;28;20398;-78
2022/07/22 05:21:28;;;;;;;4.00;1.13;;;;;;;15.37;93.86;102276.84;5091257;28;20028;-78
2022/07/22 05:23:54;;;;;;;6.47;1.20;;;;;;;15.45;93.08;102279.72;5091569;28;20032;-78
2022/07/22 05:26:19;;;;;;;3.75;1.40;;;;;;;15.51;92.88;102276.47;5091339;28;20047;-78
2022/07/22 05:28:44;;;;;;;5.35;1.52;;;;;;;15.55;93.30;102279.72;5091156;28;20414;-79
2022/07/22 05:31:10;;;;;;;6.93;1.38;;;;;;;15.57;93.63;102279.59;5091493;28;20135;-78
2022/07/22 05:33:35;;;;;;;5.00;1.23;;;;;;;15.59;93.04;102278.47;5089570;28;20040;-78
2022/07/22 05:36:02;;;;;;;8.23;1.48;;;;;;;15.62;92.17;102278.19;5090765;28;20055;-78
2022/07/22 05:38:27;;;;;;;5.53;1.25;;;;;;;15.69;91.35;102284.72;5091160;28;20185;-78
2022/07/22 05:40:53;;;;;;;3.40;1.20;;;;;;;15.77;92.09;102285.88;5091239;28;20039;-78
2022/07/22 05:43:18;;;;;;;3.88;1.23;;;;;;;15.80;90.18;102291.84;5091338;28;20034;-78
2022/07/22 05:45:44;;;;;;;5.47;1.25;;;;;;;15.85;90.10;102288.72;5091220;28;20047;-78
2022/07/22 05:48:09;;;;;;;4.53;1.10;;;;;;;15.94;90.70;102285.19;5090654;28;20056;-78
2022/07/22 05:50:35;;;;;;;5.03;1.15;;;;;;;16.03;90.33;102281.72;5090917;28;20044;-78
2022/07/22 05:53:01;;;;;;;6.18;1.20;;;;;;;16.15;90.38;102289.59;5091029;28;20119;-78
2022/07/22 05:55:26;;;;;;;8.85;1.50;;;;;;;16.22;90.13;102283.53;5090274;28;20164;-79
2022/07/22 05:57:51;;;;;;;3.30;1.40;;;;;;;16.31;89.30;102286.38;5090643;28;20036;-78
2022/07/22 06:00:17;;;;;;;4.57;1.45;;;;;;;16.39;88.50;102281.13;5090665;28;20357;-78
2022/07/22 06:02:42;;;;;;;3.35;1.20;;;;;;;16.46;86.62;102278.72;5091055;28;20395;-79
2022/07/22 06:05:08;;;;;;;6.60;1.40;;;;;;;16.53;87.93;102278.00;5088952;28;20423;-79
2022/07/22 06:07:33;;;;;;;2.67;1.17;;;;;;;16.60;85.42;102280.13;5088398;28;20117;-79
2022/07/22 06:09:58;;;;;;;5.70;1.48;;;;;;;16.70;85.34;102284.47;5090199;28;20056;-79
2022/07/22 06:12:24;;;;;;;6.13;1.35;;;;;;;16.79;84.40;102279.25;5090317;28;20039;-79
2022/07/22 06:14:49;;;;;;;3.55;1.20;;;;;;;16.88;86.36;102278.41;5089638;28;20487;-79
2022/07/22 06:17:14;;;;;;;6.35;1.23;;;;;;;16.95;83.84;102284.06;5090710;28;20032;-79
2022/07/22 06:19:40;;;;;;;6.20;1.42;;;;;;;17.02;83.45;102285.16;5090400;28;20047;-79
2022/07/22 06:22:05;;;;;;;6.15;1.20;;;;;;;17.11;84.38;102270.84;5090225;28;20441;-79
2022/07/22 06:24:31;;;;;;;7.25;1.50;;;;;;;17.09;81.80;102270.13;5088925;28;20028;-79
2022/07/22 06:26:56;;;;;;;5.38;1.27;;;;;;;17.10;82.58;102263.75;5089825;28;20042;-80
2022/07/22 06:29:21;;;;;;;6.55;1.42;;;;;;;17.17;83.17;102278.31;5090190;28;20032;-79
2022/07/22 06:31:48;;;;;;;6.53;1.75;;;;;;;17.17;80.59;102275.63;5089969;28;20078;-79
2022/07/22 06:34:13;;;;;;;3.90;1.52;;;;;;;17.19;81.10;102279.00;5090045;28;20035;-79
2022/07/22 06:36:39;;;;;;;5.07;1.50;;;;;;;17.17;81.47;102277.47;5090364;28;20326;-77
2022/07/22 06:39:04;;;;;;;7.03;1.42;;;;;;;17.14;80.16;102283.13;5088700;28;20454;-78
2022/07/22 06:41:29;;;;;;;3.75;1.30;;;;;;;17.15;80.36;102284.81;5088655;28;20024;-78
2022/07/22 06:43:55;;;;;;;6.18;1.50;;;;;;;17.19;80.48;102280.84;5090368;28;20072;-78
2022/07/22 06:46:20;;;;;;;4.70;1.02;;;;;;;17.28;80.63;102277.25;5089969;28;20036;-75
2022/07/22 06:48:45;;;;;;;3.95;1.58;;;;;;;17.40;77.81;102281.44;5089967;28;20054;-77
2022/07/22 06:51:11;;;;;;;5.72;2.05;;;;;;;17.57;80.28;102274.44;5088280;28;20438;-77
2022/07/22 06:53:36;;;;;;;5.75;1.50;;;;;;;17.68;80.02;102283.31;5089805;28;20046;-80
2022/07/22 06:56:02;;;;;;;4.10;1.50;;;;;;;17.79;78.38;102278.56;5090096;28;20040;-80
2022/07/22 06:58:27;;;;;;;6.15;1.63;;;;;;;17.82;78.68;102277.38;5090037;28;20032;-83
2022/07/22 07:00:53;;;;;;;11.02;1.50;;;;;;;17.82;74.89;102279.25;5089482;28;20028;-76
2022/07/22 07:03:18;;;;;;;6.88;1.70;;;;;;;17.85;73.20;102282.47;5088491;28;20127;-76
2022/07/22 07:05:44;;;;;;;6.43;1.55;;;;;;;17.83;75.50;102287.16;5089723;28;20334;-74
2022/07/22 07:08:10;;;;;;;10.50;1.60;;;;;;;17.78;75.87;102289.47;5089705;28;20314;-77
2022/07/22 07:10:35;;;;;;;4.03;1.33;;;;;;;17.75;75.79;102282.53;5089440;28;20076;-78
2022/07/22 07:13:00;;;;;;;6.28;1.48;;;;;;;17.82;76.98;102288.16;5089597;28;20040;-80
2022/07/22 07:15:26;;;;;;;4.97;1.45;;;;;;;17.83;74.58;102286.31;5089472;28;20033;-80
2022/07/22 07:17:53;;;;;;;3.95;1.67;;;;;;;17.88;73.73;102282.16;5089303;28;20142;-81
2022/07/22 07:20:18;;;;;;;7.20;1.30;;;;;;;18.02;74.37;102283.53;5090064;28;20051;-80
2022/07/22 07:22:43;;;;;;;2.88;1.20;;;;;;;18.15;75.39;102280.44;5089034;28;20032;-79
2022/07/22 07:25:10;;;;;;;8.20;1.50;;;;;;;18.29;74.46;102284.44;5090942;28;20028;-78
2022/07/22 07:27:36;;;;;;;6.68;1.40;;;;;;;18.40;75.05;102286.06;5093510;28;20032;-80
2022/07/22 07:30:03;;;;;;;5.82;1.85;;;;;;;18.48;73.56;102283.41;5093049;28;20092;-80
2022/07/22 07:32:28;;;;;;;3.75;1.33;;;;;;;18.64;74.40;102280.84;5092765;28;20365;-78
2022/07/22 07:34:53;;;;;;;7.65;1.23;;;;;;;18.59;70.87;102274.25;5093454;28;20032;-79
2022/07/22 07:37:19;;;;;;;3.88;1.58;;;;;;;18.50;71.71;102284.94;5093312;28;20128;-79
2022/07/22 07:39:44;;;;;;;4.47;1.15;;;;;;;18.52;71.83;102281.25;5093188;28;20485;-79
2022/07/22 07:42:09;;;;;;;4.72;1.45;;;;;;;18.50;69.89;102286.81;5092813;28;20040;-78
2022/07/22 07:44:35;;;;;;;3.85;1.42;;;;;;;18.53;73.25;102291.88;5093328;28;20063;-78
2022/07/22 07:47:00;;;;;;;5.97;1.38;;;;;;;18.52;74.87;102289.34;5092996;28;20032;-77
2022/07/22 07:49:26;;;;;;;12.38;1.65;;;;;;;18.48;72.29;102294.19;5092949;28;20052;-78
2022/07/22 07:51:51;;;;;;;8.93;1.30;;;;;;;18.40;72.71;102291.44;5093226;28;20063;-78
2022/07/22 07:54:17;;;;;;;3.58;1.40;;;;;;;18.31;73.39;102285.13;5093035;28;20115;-80
2022/07/22 07:56:43;;;;;;;7.32;1.75;;;;;;;18.41;74.44;102274.28;5092769;28;20032;-80
2022/07/22 07:59:08;;;;;;;6.13;1.40;;;;;;;18.62;72.75;102273.94;5092942;28;20441;-83
2022/07/22 08:01:33;;;;;;;8.68;1.75;;;;;;;18.81;72.41;102272.84;5091426;28;20410;-80
2022/07/22 08:03:59;;;;;;;7.00;1.50;;;;;;;18.91;71.19;102273.63;5092458;28;20032;-81
2022/07/22 08:06:24;;;;;;;10.10;1.88;;;;;;;18.98;68.57;102269.28;5093064;28;20032;-79
2022/07/22 08:08:49;;;;;;;4.18;1.80;;;;;;;19.15;67.15;102269.38;5092903;28;20107;-82
2022/07/22 08:11:15;;;;;;;4.78;1.55;;;;;;;19.29;69.26;102279.56;5092413;28;20147;-79
2022/07/22 08:13:40;;;;;;;3.60;1.45;;;;;;;19.32;67.26;102267.63;5092249;28;20044;-80
2022/07/22 08:16:05;;;;;;;4.55;1.15;;;;;;;19.23;68.46;102269.44;5092668;28;20115;-79
2022/07/22 08:18:31;;;;;;;6.50;1.75;;;;;;;19.22;67.55;102256.09;5092126;28;20032;-80
2022/07/22 08:20:57;;;;;;;5.28;1.45;;;;;;;19.26;68.08;102266.41;5092516;28;20073;-77
2022/07/22 08:23:22;;;;;;;6.82;1.58;;;;;;;19.31;67.27;102257.81;5092362;28;20093;-79
2022/07/22 08:25:48;;;;;;;4.03;1.73;;;;;;;19.32;67.07;102260.34;5092178;28;20351;-76
2022/07/22 08:28:13;;;;;;;6.50;1.60;;;;;;;19.44;67.39;102258.22;5092316;28;20458;-87
2022/07/22 08:30:39;;;;;;;3.80;1.40;;;;;;;19.60;64.91;102262.81;5092444;28;20445;-82
2022/07/22 08:33:05;;;;;;;8.88;1.55;;;;;;;19.85;66.73;102258.34;5092296;28;20032;-80
2022/07/22 08:35:31;;;;;;;3.25;1.25;;;;;;;20.08;65.20;102261.25;5092234;28;20034;-80
2022/07/22 08:37:56;;;;;;;12.43;1.88;;;;;;;20.39;65.23;102249.78;5091796;28;20489;-82
2022/07/22 08:40:22;;;;;;;4.32;1.83;;;;;;;20.83;65.50;102248.53;5092298;28;20442;-83
2022/07/22 08:42:49;;;;;;;7.63;1.67;;;;;;;20.88;58.28;102253.44;5092381;28;20437;-80
2022/07/22 08:45:14;;;;;;;3.88;1.52;;;;;;;21.31;58.93;102256.66;5092279;28;20375;-79
2022/07/22 08:47:43;;;;;;;3.45;1.20;;;;;;;21.34;57.21;102253.59;5092741;28;20032;-77
2022/07/22 08:50:09;;;;;;;5.60;1.75;;;;;;;21.56;59.16;102248.47;5091796;28;20134;-78
2022/07/22 08:52:34;;;;;;;4.68;1.52;;;;;;;21.61;57.55;102243.34;5090442;28;20094;-80
2022/07/22 08:55:06;;;;;;;3.58;1.33;;;;;;;21.54;57.45;102242.38;5092603;28;20118;-76
2022/07/22 08:57:31;;;;;;;4.00;1.58;;;;;;;21.33;59.36;102248.38;5092176;28;20027;-80
2022/07/22 08:59:59;;;;;;;5.60;1.40;;;;;;;21.03;62.03;102246.28;5090554;28;20024;-76
2022/07/22 09:02:25;;;;;;;6.38;1.60;;;;;;;21.05;59.48;102252.38;5092026;28;20046;-77
2022/07/22 09:04:59;;;;;;;2.90;1.23;;;;;;;20.96;55.73;102248.84;5091766;28;20090;-75
2022/07/22 09:07:30;;;;;;;4.55;1.35;;;;;;;21.01;58.83;102242.06;5091892;28;20020;-76
2022/07/22 09:09:57;;;;;;;5.22;1.48;;;;;;;20.91;57.52;102245.81;5091957;28;20040;-77
2022/07/22 09:12:22;;;;;;;3.65;1.30;;;;;;;20.94;58.85;102236.50;5091996;28;20105;-75
2022/07/22 09:14:52;;;;;;;3.92;1.30;;;;;;;21.26;59.47;102234.72;5090011;28;20032;-75
2022/07/22 09:17:38;;;;;;;4.23;1.37;;;;;;;22.16;52.95;102226.00;5091955;28;20036;-77
2022/07/22 09:20:16;;;;;;;7.90;1.70;;;;;;;23.07;50.31;102215.06;5091915;28;20034;-76
2022/07/22 09:22:46;;;;;;;5.55;1.30;;;;;;;24.04;48.88;102221.19;5091270;28;20077;-77
2022/07/22 09:25:36;;;;;;;5.15;1.40;;;;;;;24.25;47.55;102228.47;5091337;28;20119;-77
2022/07/22 09:28:07;;;;;;;5.60;1.23;;;;;;;23.67;46.75;102244.00;5090069;28;20073;-77
2022/07/22 09:30:38;;;;;;;6.13;1.20;;;;;;;22.88;50.79;102240.06;5091819;28;20479;-78
2022/07/22 09:33:05;;;;;;;5.05;1.40;;;;;;;22.22;51.15;102234.44;5091757;28;20062;-77
2022/07/22 09:35:31;;;;;;;5.28;1.25;;;;;;;21.62;55.04;102245.03;5089957;28;20111;-75
2022/07/22 09:38:08;;;;;;;5.85;1.42;;;;;;;21.37;55.39;102242.41;5091307;28;20185;-78
2022/07/22 09:40:39;;;;;;;4.80;1.38;;;;;;;21.11;57.58;102246.25;5091247;28;20028;-76
2022/07/22 09:43:12;;;;;;;2.50;1.35;;;;;;;20.84;56.05;102246.66;5091142;28;20107;-76
2022/07/22 09:45:48;;;;;;;5.25;1.27;;;;;;;20.73;55.94;102256.84;5091345;28;20028;-75
2022/07/22 09:48:15;;;;;;;7.18;1.33;;;;;;;20.69;56.30;102251.94;5090114;28;20047;-76
2022/07/22 09:50:41;;;;;;;4.28;1.20;;;;;;;20.82;55.97;102241.44;5091041;28;20410;-76
2022/07/22 09:53:06;;;;;;;4.55;1.30;;;;;;;21.19;57.40;102258.91;5091011;28;20116;-76
2022/07/22 09:55:33;;;;;;;5.68;1.38;;;;;;;22.70;54.10;102252.13;5091141;28;20113;-76
2022/07/22 09:57:59;;;;;;;3.20;1.15;;;;;;;24.95;45.14;102249.50;5091034;28;20039;-77
2022/07/22 10:00:26;;;;;;;5.15;1.40;;;;;;;25.69;42.62;102247.91;5090619;28;20081;-77
2022/07/22 10:02:56;;;;;;;7.38;1.60;;;;;;;26.37;42.96;102250.53;5091035;28;20071;-76
2022/07/22 10:05:30;;;;;;;6.55;1.58;;;;;;;25.98;39.48;102251.34;5090757;28;20028;-78
2022/07/22 10:07:56;;;;;;;7.13;1.55;;;;;;;25.48;41.26;102251.63;5090868;28;20034;-77
2022/07/22 10:10:25;;;;;;;4.10;1.30;;;;;;;24.79;44.14;102247.94;5088756;28;20388;-78
2022/07/22 10:12:52;;;;;;;4.53;1.30;;;;;;;24.04;43.40;102245.66;5090548;28;20024;-77
2022/07/22 10:15:18;;;;;;;3.95;1.50;;;;;;;23.79;48.25;102256.03;5090509;28;20036;-77
2022/07/22 10:17:49;;;;;;;3.40;1.48;;;;;;;23.88;46.11;102252.19;5090630;28;20101;-78
2022/07/22 10:20:20;;;;;;;5.25;1.23;;;;;;;23.97;47.67;102252.91;5072385;28;20495;-77
2022/07/22 10:22:49;;;;;;;6.43;1.35;;;;;;;23.30;47.49;102252.13;5090381;28;20032;-78
2022/07/22 10:25:15;;;;;;;8.13;1.17;;;;;;;22.81;50.10;102252.69;5090868;28;20052;-77
2022/07/22 10:27:48;;;;;;;6.55;1.20;;;;;;;22.54;50.68;102249.56;5090322;28;20090;-77
2022/07/22 10:30:17;;;;;;;5.60;1.42;;;;;;;22.36;51.37;102258.03;5090567;28;20085;-78
2022/07/22 10:32:42;;;;;;;5.18;1.40;;;;;;;22.99;49.72;102260.47;5090812;28;20092;-77
2022/07/22 10:35:10;;;;;;;4.63;1.73;;;;;;;23.22;48.03;102254.97;5090367;28;20096;-77
2022/07/22 10:37:40;;;;;;;10.18;1.73;;;;;;;23.19;49.72;102260.78;5090146;28;20056;-78
2022/07/22 10:40:10;;;;;;;5.23;1.47;;;;;;;22.91;48.42;102261.41;5090522;28;20521;-77
2022/07/22 10:43:08;;;;;;;10.27;1.20;;;;;;;22.59;48.25;102268.88;5090627;28;20266;-77
2022/07/22 10:45:36;;;;;;;3.75;1.30;;;;;;;22.42;50.54;102262.72;5085669;28;20043;-77
2022/07/22 10:48:05;;;;;;;5.07;1.40;;;;;;;22.37;49.33;102251.59;5089993;28;20032;-77
2022/07/22 10:50:39;;;;;;;3.22;1.50;;;;;;;22.23;49.56;102246.94;5089857;28;20043;-76
2022/07/22 10:53:14;;;;;;;4.95;1.25;;;;;;;22.10;50.06;102247.59;5089980;28;20047;-76
2022/07/22 10:55:59;;;;;;;8.73;1.90;;;;;;;21.71;50.98;102237.72;5090002;28;20043;-71
2022/07/22 10:58:33;;;;;;;8.13;1.58;;;;;;;21.48;51.88;102236.63;5089990;28;20032;-72
2022/07/22 11:01:06;;;;;;;5.28;1.40;;;;;;;21.61;52.60;102222.50;5089400;28;20031;-72
2022/07/22 11:03:32;;;;;;;4.15;1.30;;;;;;;23.29;48.75;102223.31;5089963;28;20036;-72
2022/07/22 11:06:17;;;;;;;3.25;1.40;;;;;;;25.41;42.11;102223.53;5090006;28;20449;-73
2022/07/22 11:08:44;;;;;;;4.05;1.23;;;;;;;26.95;38.53;102220.84;5089930;28;20028;-73
2022/07/22 11:11:10;;;;;;;7.97;1.52;;;;;;;27.85;38.46;102220.81;5090076;28;20051;-73
2022/07/22 11:13:38;;;;;;;5.13;1.95;;;;;;;28.43;37.77;102202.47;5089755;28;20032;-74
2022/07/22 11:16:23;;;;;;;3.47;1.30;;;;;;;28.67;35.00;102203.50;5089824;28;20043;-72
2022/07/22 11:19:00;;;;;;;6.30;1.20;;;;;;;29.80;35.70;102211.28;5089574;28;20084;-72
2022/07/22 11:21:28;;;;;;;3.35;1.15;;;;;;;30.71;34.30;102211.84;5089615;28;20025;-73